NCAR-RAP Real-Time Weather Data

Output produced by METARs form (08 May 2021  02:02 UTC)
found at http://weather.rap.ucar.edu/surface/
 
KODX 080053Z AUTO 11014G20KT 10SM CLR 17/03 A2993 RMK AO2 SLP139 T01720028 $
KODX 072353Z AUTO 12011G22KT 10SM CLR 19/03 A2994 RMK AO2 SLP142 T01890033 10200 20172 56019 $
KODX 072253Z AUTO 12015G20KT 10SM SCT055 19/04 A2996 RMK AO2 SLP149 T01940039 $
KODX 072153Z AUTO 13012G21KT 10SM BKN055 19/04 A2997 RMK AO2 SLP155 T01940039 $
KODX 072053Z AUTO 10013G21KT 10SM SCT055 20/03 A3000 RMK AO2 SLP161 T02000033 56025 $
KODX 071953Z AUTO 10014G22KT 10SM OVC050 19/03 A3002 RMK AO2 SLP170 T01890028
KODX 071853Z AUTO 11013G19KT 10SM BKN050 18/03 A3004 RMK AO2 SLP179 T01830033
KODX 071753Z AUTO 11012KT 10SM BKN055 BKN065 17/03 A3008 RMK AO2 SLP189 T01720033 10183 20028 58014
KODX 071653Z AUTO 10009KT 10SM OVC070 17/04 A3010 RMK AO2 SLP197 T01670039
KODX 071553Z AUTO 10009KT 10SM BKN065 BKN080 16/04 A3011 RMK AO2 SLP199 T01610039
KODX 071453Z AUTO 09009KT 10SM BKN065 OVC080 14/03 A3012 RMK AO2 SLP202 T01440033 50001
KODX 071353Z AUTO 36003KT 10SM OVC065 09/04 A3013 RMK AO2 SLP207 T00940044
KODX 071253Z AUTO 34004KT 10SM BKN070 05/02 A3012 RMK AO2 SLP206 T00500022
KODX 071153Z AUTO 00000KT 10SM BKN070 03/01 A3012 RMK AO2 SLP204 T00280006 10056 20006 53001